Time;durP1;ratioP1;P1;durP2;ratioP2;P2;SDS_P1;SDS_P2;PMS_P1;PMS_P2;Temp;Humidity;BMP_temperature;BMP_pressure;BME280_temperature;BME280_humidity;BME280_pressure;Samples;Min_cycle;Max_cycle;Signal;HPM_P1;HPM_P2
2021/09/30 00:02:00;;;;;;;13.53;6.58;;;;;;;2.89;76.30;102517.45;1771518;81;21242;-63
2021/09/30 00:04:33;;;;;;;;;;;;;;;2.88;76.36;102518.80;1774828;81;21312;-63
2021/09/30 00:07:07;;;;;;;12.00;6.42;;;;;;;2.88;76.40;102508.45;1772528;81;20612;-62
2021/09/30 00:09:44;;;;;;;12.28;6.22;;;;;;;2.86;76.41;102508.92;1772095;81;21150;-63
2021/09/30 00:12:25;;;;;;;12.70;6.83;;;;;;;2.85;76.34;102507.21;1771543;81;21322;-63
2021/09/30 00:14:55;;;;;;;12.60;5.95;;;;;;;2.84;76.37;102506.39;1770501;81;21263;-62
2021/09/30 00:35:04;;;;;;;13.22;5.37;;;;;;;2.70;76.66;102511.82;1772250;81;21719;-63
2021/09/30 00:40:31;;;;;;;9.95;5.10;;;;;;;2.70;76.78;102510.53;1772420;81;21240;-62
2021/09/30 00:45:54;;;;;;;10.18;5.50;;;;;;;2.69;76.98;102507.55;1771805;81;21185;-62
2021/09/30 01:46:26;;;;;;;9.88;5.12;;;;;;;2.34;77.37;102528.05;1772317;81;21252;-64
2021/09/30 01:52:56;;;;;;;13.75;5.15;;;;;;;2.30;77.31;102530.73;1771757;81;21181;-64
2021/09/30 02:29:33;;;;;;;12.03;5.85;;;;;;;2.01;77.73;102550.19;1740211;82;21320;-64
2021/09/30 02:35:15;;;;;;;11.90;5.58;;;;;;;1.98;77.72;102549.41;1710918;82;21178;-63
2021/09/30 03:00:31;;;;;;;7.97;4.97;;;;;;;1.89;77.83;102554.27;1759840;81;21707;-62
2021/09/30 03:03:04;;;;;;;9.28;4.90;;;;;;;1.89;77.85;102552.13;1736004;82;21295;-61
2021/09/30 03:05:37;;;;;;;8.47;5.10;;;;;;;1.89;77.83;102560.73;1773329;81;21239;-61
2021/09/30 03:08:10;;;;;;;10.90;5.63;;;;;;;1.89;77.86;102559.87;1736033;82;21584;-63
2021/09/30 03:10:45;;;;;;;8.88;5.00;;;;;;;1.88;77.89;102569.37;1784924;79;21488;-64
2021/09/30 03:13:19;;;;;;;12.40;5.10;;;;;;;1.87;77.91;102563.78;1803914;79;21915;-63
2021/09/30 03:16:11;;;;;;;11.03;5.22;;;;;;;1.87;77.97;102566.36;1801629;79;21239;-64
2021/09/30 03:23:48;;;;;;;12.18;4.92;;;;;;;1.90;77.73;102572.78;1802530;79;21359;-63
2021/09/30 03:26:24;;;;;;;9.83;5.42;;;;;;;1.91;77.73;102574.93;1803765;79;21196;-64
2021/09/30 03:28:56;;;;;;;9.03;5.28;;;;;;;1.91;77.68;102574.93;1803312;79;21392;-62
2021/09/30 03:31:32;;;;;;;10.88;4.78;;;;;;;1.91;77.61;102580.92;1804826;79;21252;-62
2021/09/30 03:34:26;;;;;;;9.15;5.33;;;;;;;1.92;77.62;102577.91;1740949;82;21177;-63
2021/09/30 03:37:00;;;;;;;7.35;5.10;;;;;;;2.01;77.66;102585.06;1741970;82;21771;-64
2021/09/30 03:39:34;;;;;;;8.13;4.25;;;;;;;2.11;77.51;102590.08;1766529;79;21834;-64
2021/09/30 03:42:08;;;;;;;13.00;4.72;;;;;;;2.19;77.47;102583.91;1804989;79;21236;-64
2021/09/30 03:44:43;;;;;;;14.43;5.25;;;;;;;2.30;77.30;102588.88;1803825;79;21307;-64
2021/09/30 03:47:18;;;;;;;14.35;4.67;;;;;;;2.51;77.08;102593.66;1813537;79;21149;-64
2021/09/30 03:50:03;;;;;;;12.55;5.28;;;;;;;2.65;76.70;102591.23;1812982;79;21255;-63
2021/09/30 03:52:48;;;;;;;11.25;5.50;;;;;;;2.73;76.26;102601.44;1813556;79;21264;-64
2021/09/30 04:00:52;;;;;;;11.30;4.85;;;;;;;2.81;75.65;102600.86;1813220;79;21149;-62
2021/09/30 04:03:28;;;;;;;9.43;5.40;;;;;;;2.87;75.59;102607.19;1813358;79;21858;-63
2021/09/30 04:06:01;;;;;;;11.48;5.33;;;;;;;2.99;75.54;102601.77;1812137;79;21248;-64
2021/09/30 04:08:35;;;;;;;;;;;;;;;3.13;75.48;102598.45;1815891;79;21291;-64
2021/09/30 04:11:09;;;;;;;9.58;5.75;;;;;;;3.33;75.27;102604.08;1811680;79;20157;-64
2021/09/30 04:13:42;;;;;;;9.03;5.33;;;;;;;3.94;75.15;102607.87;1812395;79;21339;-64
2021/09/30 04:16:15;;;;;;;8.20;5.40;;;;;;;4.97;73.72;102600.78;1812286;79;21315;-64
2021/09/30 04:18:49;;;;;;;7.73;5.20;;;;;;;6.06;71.52;102606.10;1812846;79;21853;-64
2021/09/30 04:21:22;;;;;;;9.48;5.47;;;;;;;7.08;69.00;102600.75;1813561;79;21236;-64
2021/09/30 04:23:56;;;;;;;6.60;4.80;;;;;;;8.00;66.38;102601.48;1814083;79;21803;-63
2021/09/30 04:26:32;;;;;;;7.53;5.03;;;;;;;8.87;63.70;102601.22;1812013;79;21195;-64
2021/09/30 04:29:05;;;;;;;6.58;4.45;;;;;;;9.63;61.04;102598.53;1813450;79;21240;-67
2021/09/30 04:31:39;;;;;;;6.37;4.75;;;;;;;10.38;58.77;102603.12;1813324;79;21340;-69
2021/09/30 04:34:12;;;;;;;6.15;4.12;;;;;;;11.15;56.61;102596.41;1813190;79;21271;-69
2021/09/30 04:36:46;;;;;;;6.60;3.98;;;;;;;11.83;54.86;102596.06;1780961;79;21495;-68
2021/09/30 04:39:19;;;;;;;9.73;4.25;;;;;;;12.44;52.52;102603.02;1813005;79;21336;-68
2021/09/30 04:41:53;;;;;;;8.05;3.83;;;;;;;13.08;50.42;102596.03;1813511;79;21149;-69
2021/09/30 04:44:27;;;;;;;7.05;4.25;;;;;;;13.70;48.14;102598.61;1813012;79;21299;-68
2021/09/30 04:47:00;;;;;;;6.90;4.37;;;;;;;14.22;46.30;102600.81;1812061;79;21279;-68
2021/09/30 04:49:42;;;;;;;6.45;3.90;;;;;;;14.72;44.78;102606.63;1794200;79;21416;-69
2021/09/30 04:52:15;;;;;;;8.90;4.33;;;;;;;15.20;43.10;102603.67;1802710;79;21303;-70
2021/09/30 04:54:49;;;;;;;8.13;4.03;;;;;;;15.63;41.71;102605.41;1762796;79;21293;-71
2021/09/30 04:57:21;;;;;;;;;;;;;;;15.99;40.66;102602.23;1762396;81;21901;-69
2021/09/30 04:59:55;;;;;;;7.83;5.37;;;;;;;16.41;39.61;102611.83;1770837;79;20211;-67
2021/09/30 05:02:41;;;;;;;6.60;4.50;;;;;;;16.76;38.65;102608.23;1778973;79;21208;-69
2021/09/30 05:05:15;;;;;;;;;;;;;;;17.20;37.54;102608.69;1780676;79;21237;-66
2021/09/30 05:07:50;;;;;;;5.55;3.70;;;;;;;17.61;36.75;102603.22;1780211;79;20223;-66
2021/09/30 05:10:31;;;;;;;7.05;3.77;;;;;;;17.95;36.16;102615.39;1742472;81;21330;-66
2021/09/30 05:13:09;;;;;;;9.85;4.58;;;;;;;18.32;34.99;102614.50;1781666;79;21319;-67
2021/09/30 05:15:37;;;;;;;5.65;3.98;;;;;;;18.60;34.76;102617.85;1782832;79;21299;-68
2021/09/30 05:18:13;;;;;;;6.35;4.05;;;;;;;18.98;34.13;102622.03;1779569;79;21197;-66
2021/09/30 05:20:48;;;;;;;8.15;4.45;;;;;;;19.34;33.26;102612.64;1729013;81;21216;-68
2021/09/30 05:23:23;;;;;;;9.38;4.62;;;;;;;19.68;32.64;102609.99;1726350;82;21590;-68
2021/09/30 05:26:01;;;;;;;6.97;4.22;;;;;;;20.05;31.92;102620.31;1787447;79;21124;-64
2021/09/30 05:28:34;;;;;;;7.05;4.22;;;;;;;20.46;31.43;102609.02;1784625;79;21192;-63
2021/09/30 05:31:07;;;;;;;;;;;;;;;20.87;30.84;102619.27;1785575;79;21337;-67
2021/09/30 05:33:42;;;;;;;12.05;4.30;;;;;;;21.23;30.36;102619.74;1781820;79;20318;-64
2021/09/30 05:36:18;;;;;;;5.70;4.17;;;;;;;21.53;30.21;102614.60;1754973;80;21428;-65
2021/09/30 05:38:52;;;;;;;10.53;4.30;;;;;;;21.88;29.45;102613.80;1759779;80;21197;-64
2021/09/30 05:41:25;;;;;;;5.60;4.03;;;;;;;22.20;28.92;102613.25;1756871;80;21260;-67
2021/09/30 05:44:07;;;;;;;9.33;4.65;;;;;;;22.50;28.37;102613.64;1752379;80;21303;-65
2021/09/30 05:46:53;;;;;;;6.90;4.28;;;;;;;22.81;28.15;102611.34;1754287;81;21740;-66
2021/09/30 05:49:17;;;;;;;12.40;8.15;;;;;;;23.16;27.78;102604.52;1748899;81;22370;-67
2021/09/30 05:51:57;;;;;;;19.20;12.53;;;;;;;23.56;27.13;102606.48;1743361;81;21830;-64
2021/09/30 05:54:39;;;;;;;16.95;5.50;;;;;;;23.94;26.63;102609.04;1752401;80;21200;-67
2021/09/30 05:57:18;;;;;;;100.87;11.33;;;;;;;24.21;26.30;102608.75;1716646;82;21290;-64
2021/09/30 05:59:59;;;;;;;;;;;;;;;24.51;25.87;102612.54;1724836;82;21310;-67
2021/09/30 06:11:19;;;;;;;;;;;;;;;25.52;24.79;102610.36;1684088;84;22520;-64
2021/09/30 06:16:31;;;;;;;5.72;3.50;;;;;;;26.16;24.02;102617.61;1702104;82;21220;-66
2021/09/30 06:19:07;;;;;;;8.23;3.60;;;;;;;26.51;23.44;102619.66;1697216;84;22541;-68
2021/09/30 06:21:43;;;;;;;9.83;5.60;;;;;;;26.72;23.35;102626.47;1726075;82;21263;-68
2021/09/30 06:24:30;;;;;;;8.45;4.10;;;;;;;27.01;23.00;102623.79;1738402;81;21968;-72
2021/09/30 06:27:05;;;;;;;5.92;3.40;;;;;;;27.37;22.67;102624.69;1756486;80;21254;-69
2021/09/30 06:29:40;;;;;;;7.03;3.87;;;;;;;27.70;22.41;102620.20;1757645;80;21222;-65
2021/09/30 06:32:14;;;;;;;4.58;3.60;;;;;;;28.08;21.97;102626.17;1767085;80;21357;-67
2021/09/30 06:35:08;;;;;;;4.05;3.58;;;;;;;28.33;21.69;102630.94;1771127;79;21302;-66
2021/09/30 06:37:47;;;;;;;8.80;4.85;;;;;;;28.55;21.50;102629.02;1754827;79;21148;-68
2021/09/30 06:40:23;;;;;;;5.55;3.77;;;;;;;28.82;21.55;102630.05;1763037;80;21171;-64
2021/09/30 06:42:57;;;;;;;5.62;3.55;;;;;;;29.17;21.11;102631.67;1767375;80;21768;-67
2021/09/30 06:45:35;;;;;;;6.95;3.47;;;;;;;29.41;20.93;102628.98;1749202;80;21286;-66
2021/09/30 06:48:27;;;;;;;6.70;3.20;;;;;;;29.68;20.80;102622.12;1710501;83;21833;-68
2021/09/30 06:51:02;;;;;;;5.42;3.40;;;;;;;29.87;20.64;102626.75;1756380;80;21742;-69
2021/09/30 06:53:38;;;;;;;5.55;4.08;;;;;;;30.10;20.28;102625.48;1739699;80;21294;-68
2021/09/30 06:56:26;;;;;;;4.92;3.30;;;;;;;30.25;20.05;102622.06;1753784;80;21174;-68
2021/09/30 06:59:19;;;;;;;4.78;3.50;;;;;;;30.44;19.96;102623.44;1698239;80;21247;-69
2021/09/30 07:02:10;;;;;;;5.03;3.33;;;;;;;30.67;19.64;102625.66;1735655;80;21336;-64
2021/09/30 07:05:01;;;;;;;3.98;2.70;;;;;;;30.93;19.49;102619.41;1743664;80;21320;-66
2021/09/30 07:07:45;;;;;;;8.00;3.72;;;;;;;31.32;19.07;102620.56;1718627;80;21352;-69
2021/09/30 07:10:24;;;;;;;4.40;3.40;;;;;;;31.60;18.68;102623.76;1741118;80;21143;-68
2021/09/30 07:13:00;;;;;;;6.15;2.92;;;;;;;31.74;18.53;102619.11;1749712;80;21241;-66
2021/09/30 07:15:34;;;;;;;7.58;3.15;;;;;;;31.94;18.04;102617.06;1752770;80;21749;-68
2021/09/30 07:18:20;;;;;;;4.42;3.00;;;;;;;32.04;17.98;102622.85;1743932;80;21532;-69
2021/09/30 07:21:00;;;;;;;3.12;2.83;;;;;;;32.14;17.26;102619.64;1700618;83;21269;-68
2021/09/30 07:23:34;;;;;;;5.37;3.22;;;;;;;31.89;17.26;102619.59;1749671;80;21237;-72
2021/09/30 07:26:09;;;;;;;9.60;3.30;;;;;;;31.65;17.56;102625.29;1753330;81;21218;-71
2021/09/30 07:28:42;;;;;;;3.40;2.47;;;;;;;31.44;17.64;102632.41;1784745;80;21358;-65
2021/09/30 07:31:16;;;;;;;3.37;2.30;;;;;;;31.29;17.43;102629.95;1757959;81;21487;-67
2021/09/30 07:33:52;;;;;;;2.45;1.80;;;;;;;31.37;16.04;102623.97;1752895;81;21364;-72
2021/09/30 07:36:26;;;;;;;3.52;1.55;;;;;;;31.31;15.97;102621.08;1771855;80;21369;-64
2021/09/30 07:39:00;;;;;;;2.42;2.15;;;;;;;31.24;15.49;102621.64;1766217;79;21236;-64
2021/09/30 07:41:35;;;;;;;6.90;4.72;;;;;;;30.93;15.80;102617.50;1768733;80;21300;-72
2021/09/30 07:44:10;;;;;;;5.62;2.58;;;;;;;30.71;15.57;102615.27;1754313;80;21182;-66
2021/09/30 07:46:44;;;;;;;5.83;2.80;;;;;;;30.11;15.76;102614.50;1773002;78;21836;-71
2021/09/30 07:49:18;;;;;;;3.42;2.10;;;;;;;29.52;16.40;102613.03;1765371;79;21709;-68
2021/09/30 07:51:53;;;;;;;2.83;1.47;;;;;;;29.05;16.57;102613.05;1781061;80;21228;-67
2021/09/30 07:54:27;;;;;;;3.08;1.72;;;;;;;28.87;16.54;102616.30;1762834;81;21335;-70
2021/09/30 07:57:05;;;;;;;4.75;2.50;;;;;;;28.75;16.85;102612.50;1766558;80;21323;-70
2021/09/30 07:59:45;;;;;;;2.67;1.72;;;;;;;28.72;16.87;102609.36;1774133;80;21895;-72
2021/09/30 08:02:20;;;;;;;3.55;1.87;;;;;;;28.75;17.05;102601.72;1761630;81;21305;-72
2021/09/30 08:04:59;;;;;;;2.00;1.80;;;;;;;28.95;17.07;102603.14;1776746;78;21343;-65
2021/09/30 08:07:33;;;;;;;3.47;2.05;;;;;;;29.01;16.83;102602.36;1717153;83;21220;-72
2021/09/30 08:10:07;;;;;;;1.50;1.40;;;;;;;29.07;16.88;102603.72;1710490;82;21347;-71
2021/09/30 08:12:41;;;;;;;7.40;1.80;;;;;;;29.08;16.55;102607.26;1774304;80;21235;-66
2021/09/30 08:15:15;;;;;;;2.42;1.70;;;;;;;28.90;16.56;102604.28;1762678;80;21210;-71
2021/09/30 08:17:48;;;;;;;;;;;;;;;28.81;16.70;102601.42;1720945;83;21314;-70
2021/09/30 08:20:22;;;;;;;1.82;1.72;;;;;;;28.63;16.98;102601.95;1740517;80;20229;-71
2021/09/30 08:22:56;;;;;;;3.12;2.45;;;;;;;28.54;17.10;102594.50;1759557;80;21311;-72
2021/09/30 08:25:31;;;;;;;7.33;2.35;;;;;;;28.66;17.05;102595.64;1744666;80;21368;-71
2021/09/30 08:28:06;;;;;;;36.93;3.80;;;;;;;28.79;17.21;102596.74;1780603;80;21196;-73
2021/09/30 08:30:41;;;;;;;2.62;1.62;;;;;;;28.95;17.32;102589.15;1775617;80;21320;-70
2021/09/30 08:33:22;;;;;;;2.70;1.50;;;;;;;29.20;16.78;102586.28;1782254;80;21336;-71
2021/09/30 08:35:52;;;;;;;1.60;1.40;;;;;;;29.11;16.53;102587.98;1778211;80;21312;-69
2021/09/30 08:38:30;;;;;;;1.70;1.60;;;;;;;28.98;16.39;102579.83;1782299;78;21283;-76
2021/09/30 08:41:08;;;;;;;3.50;1.72;;;;;;;28.72;16.73;102578.36;1776027;80;21323;-67
2021/09/30 08:43:41;;;;;;;3.85;1.55;;;;;;;28.55;17.12;102577.81;1778944;78;21206;-65
2021/09/30 08:46:14;;;;;;;3.83;1.50;;;;;;;28.13;17.32;102576.09;1776069;80;21314;-71
2021/09/30 08:48:48;;;;;;;7.62;2.27;;;;;;;27.64;17.67;102576.55;1773819;78;21183;-71
2021/09/30 08:51:21;;;;;;;;;;;;;;;27.38;18.26;102580.64;1718488;83;22620;-69
2021/09/30 08:53:53;;;;;;;4.90;1.85;;;;;;;27.46;18.33;102574.81;1767673;80;20275;-70
2021/09/30 08:56:26;;;;;;;6.95;2.05;;;;;;;27.55;18.14;102575.01;1774531;80;21335;-74
2021/09/30 08:59:01;;;;;;;5.15;1.72;;;;;;;27.44;18.09;102579.05;1769762;79;21289;-74
2021/09/30 09:01:36;;;;;;;10.72;1.87;;;;;;;27.13;18.37;102580.61;1729070;80;21320;-67
2021/09/30 09:04:22;;;;;;;4.30;1.57;;;;;;;26.85;18.53;102574.77;1720278;83;21930;-70
2021/09/30 09:06:55;;;;;;;17.57;3.10;;;;;;;26.54;18.74;102574.94;1783569;79;21287;-72
2021/09/30 09:09:28;;;;;;;3.37;1.80;;;;;;;26.26;18.80;102562.66;1770759;79;21317;-71
2021/09/30 09:12:08;;;;;;;3.80;2.20;;;;;;;26.00;19.33;102571.09;1775380;79;21347;-71
2021/09/30 09:14:42;;;;;;;2.95;1.70;;;;;;;25.80;19.73;102571.75;1766097;80;21221;-69
2021/09/30 09:17:17;;;;;;;3.17;1.77;;;;;;;25.11;19.69;102569.50;1788273;79;21279;-71
2021/09/30 09:19:56;;;;;;;4.03;1.77;;;;;;;25.11;19.69;102569.50;1715430;82;21251;-72
2021/09/30 09:22:33;;;;;;;33.95;3.85;;;;;;;24.96;20.54;102562.39;1775611;79;21264;-71
2021/09/30 09:25:12;;;;;;;5.55;1.75;;;;;;;24.74;20.84;102567.44;1768068;80;21322;-71
2021/09/30 09:27:59;;;;;;;4.03;2.02;;;;;;;24.64;20.89;102564.16;1779212;80;21315;-70
2021/09/30 09:30:52;;;;;;;2.72;1.62;;;;;;;24.39;20.79;102567.04;1766800;80;21774;-71
2021/09/30 09:33:28;;;;;;;2.55;1.67;;;;;;;23.70;21.02;102560.38;1764954;80;21290;-71
2021/09/30 09:36:09;;;;;;;4.03;2.20;;;;;;;23.13;21.73;102561.23;1767622;80;22207;-70
2021/09/30 09:38:50;;;;;;;2.52;1.80;;;;;;;22.45;21.87;102570.56;1763227;80;21827;-68
2021/09/30 09:41:35;;;;;;;2.75;1.60;;;;;;;21.68;23.34;102557.61;1767488;80;21843;-69
2021/09/30 09:44:09;;;;;;;1.87;1.62;;;;;;;21.05;24.37;102555.44;1741851;82;21371;-69
2021/09/30 09:46:43;;;;;;;6.70;2.10;;;;;;;20.64;24.71;102542.07;1739996;81;21399;-66
2021/09/30 09:49:19;;;;;;;3.35;1.82;;;;;;;20.32;25.68;102542.97;1705176;83;21419;-67
2021/09/30 09:51:52;;;;;;;2.85;2.00;;;;;;;20.01;25.58;102535.65;1749351;81;21286;-67
2021/09/30 09:54:29;;;;;;;5.12;2.10;;;;;;;19.64;26.77;102539.98;1709189;83;21413;-69
2021/09/30 09:57:12;;;;;;;4.12;2.00;;;;;;;19.16;27.42;102534.59;1740668;82;21343;-69
2021/09/30 09:59:45;;;;;;;2.25;1.85;;;;;;;18.83;27.92;102535.77;1741495;81;21327;-66
2021/09/30 10:02:31;;;;;;;3.87;1.98;;;;;;;18.41;28.24;102541.63;1707269;83;21257;-67
2021/09/30 10:05:06;;;;;;;4.00;2.22;;;;;;;17.94;28.87;102538.17;1708237;83;21862;-66
2021/09/30 10:07:39;;;;;;;7.58;1.95;;;;;;;17.45;29.54;102536.92;1710537;83;21363;-65
2021/09/30 10:10:15;;;;;;;3.35;1.90;;;;;;;17.13;29.94;102529.88;1701245;82;21217;-67
2021/09/30 10:12:48;;;;;;;3.22;2.00;;;;;;;16.84;30.30;102532.20;1769923;80;21316;-68
2021/09/30 10:15:23;;;;;;;1.98;1.67;;;;;;;16.67;30.99;102521.63;1744494;81;21182;-64
2021/09/30 10:17:58;;;;;;;5.58;2.15;;;;;;;16.51;31.43;102529.53;1734648;82;21588;-61
2021/09/30 10:20:33;;;;;;;3.22;2.00;;;;;;;16.32;31.92;102530.59;1717495;83;21486;-63
2021/09/30 10:23:08;;;;;;;3.08;1.77;;;;;;;16.17;31.91;102525.53;1742796;81;21928;-64
2021/09/30 10:25:45;;;;;;;2.87;1.87;;;;;;;15.96;32.27;102517.07;1711299;82;21350;-68
2021/09/30 10:28:19;;;;;;;4.50;1.80;;;;;;;15.83;32.37;102522.93;1705997;83;21228;-65
2021/09/30 10:30:54;;;;;;;2.33;1.70;;;;;;;15.73;32.38;102520.61;1705422;83;21911;-66
2021/09/30 10:33:42;;;;;;;7.08;1.85;;;;;;;15.55;32.12;102521.48;1720464;82;21354;-62
2021/09/30 10:36:45;;;;;;;3.25;1.90;;;;;;;15.35;33.07;102512.38;1691055;83;21490;-61
2021/09/30 10:39:32;;;;;;;2.67;1.70;;;;;;;15.23;33.84;102514.59;1705358;83;21399;-63
2021/09/30 10:42:06;;;;;;;2.35;1.82;;;;;;;15.16;34.18;102514.67;1693327;83;21352;-62
2021/09/30 10:44:40;;;;;;;3.47;1.72;;;;;;;15.10;34.22;102504.55;1758093;80;21342;-64
2021/09/30 10:47:13;;;;;;;6.10;1.80;;;;;;;15.12;34.39;102509.23;1695914;83;21359;-65
2021/09/30 10:49:51;;;;;;;4.92;2.25;;;;;;;15.12;34.20;102511.02;1645241;83;21353;-61
2021/09/30 10:52:28;;;;;;;3.02;2.25;;;;;;;14.99;33.91;102504.48;1751654;80;21275;-67
2021/09/30 10:55:24;;;;;;;5.30;2.08;;;;;;;14.81;34.51;102508.41;1754677;80;21373;-66
2021/09/30 10:58:01;;;;;;;4.03;2.15;;;;;;;14.67;34.90;102507.23;1746002;81;21284;-70
2021/09/30 11:00:48;;;;;;;2.27;1.70;;;;;;;14.58;34.93;102507.88;1736538;81;21300;-61
2021/09/30 11:03:21;;;;;;;27.75;12.78;;;;;;;14.55;34.60;102501.50;1757753;80;21391;-66
2021/09/30 11:06:11;;;;;;;;;;;;;;;14.57;34.99;102494.32;1694738;83;21313;-63
2021/09/30 11:08:48;;;;;;;4.33;2.40;;;;;;;14.60;34.90;102502.02;1681355;83;20257;-61
2021/09/30 11:11:26;;;;;;;2.10;1.90;;;;;;;14.60;35.07;102500.70;1690311;83;21285;-65
2021/09/30 11:14:07;;;;;;;6.40;2.22;;;;;;;14.56;35.33;102492.19;1682218;83;21385;-64
2021/09/30 11:16:47;;;;;;;4.22;2.90;;;;;;;14.49;35.57;102500.16;1721731;82;21663;-63
2021/09/30 11:19:41;;;;;;;7.85;2.33;;;;;;;14.42;35.91;102498.90;1711054;83;21228;-63
2021/09/30 11:22:14;;;;;;;5.50;2.30;;;;;;;14.40;36.16;102487.59;1712529;83;21292;-64
2021/09/30 11:24:57;;;;;;;3.72;2.22;;;;;;;14.41;36.56;102495.03;1724970;82;21329;-65
2021/09/30 11:27:34;;;;;;;3.45;2.15;;;;;;;14.43;36.55;102495.30;1713867;83;21257;-62
2021/09/30 11:30:22;;;;;;;5.08;1.90;;;;;;;14.44;36.20;102486.45;1709253;82;21326;-64
2021/09/30 11:32:59;;;;;;;4.30;2.10;;;;;;;14.43;35.67;102486.54;1732013;81;21249;-64
2021/09/30 11:35:32;;;;;;;4.33;2.35;;;;;;;14.43;35.75;102491.34;1768011;80;21714;-66
2021/09/30 11:38:08;;;;;;;9.95;4.10;;;;;;;14.45;36.10;102485.98;1762991;80;21983;-64
2021/09/30 11:40:40;;;;;;;4.75;2.50;;;;;;;14.43;36.49;102487.39;1760189;80;21972;-63
2021/09/30 11:43:15;;;;;;;4.20;2.07;;;;;;;14.45;36.41;102493.39;1717888;80;21335;-63
2021/09/30 11:45:48;;;;;;;5.03;2.12;;;;;;;14.43;35.81;102483.91;1702642;83;21296;-65
2021/09/30 11:48:21;;;;;;;6.53;2.23;;;;;;;14.37;36.05;102479.08;1741870;81;21802;-70
2021/09/30 11:50:58;;;;;;;6.03;3.50;;;;;;;14.38;35.94;102477.64;1739667;81;21288;-65
2021/09/30 11:53:31;;;;;;;3.85;2.30;;;;;;;14.41;36.43;102477.44;1712589;83;21897;-68
2021/09/30 11:56:10;;;;;;;4.47;2.22;;;;;;;14.41;36.27;102472.16;1734558;82;21564;-71
2021/09/30 11:58:39;;;;;;;3.52;1.62;;;;;;;14.39;36.36;102468.80;1740054;81;21207;-63
2021/09/30 12:01:12;;;;;;;;;;;;;;;14.33;36.35;102469.20;1732713;81;21354;-61
2021/09/30 12:03:46;;;;;;;3.95;2.20;;;;;;;14.31;36.89;102464.99;1719642;81;20272;-64
2021/09/30 12:06:18;;;;;;;4.50;1.92;;;;;;;14.29;37.21;102468.18;1776095;80;21376;-64
2021/09/30 12:09:01;;;;;;;4.42;2.02;;;;;;;14.29;37.08;102461.59;1780659;80;21319;-62
2021/09/30 12:11:37;;;;;;;3.98;2.33;;;;;;;14.32;37.33;102465.38;1774820;80;21351;-62
2021/09/30 12:14:11;;;;;;;3.85;1.72;;;;;;;14.34;37.21;102460.37;1774680;80;21923;-68
2021/09/30 12:17:05;;;;;;;4.00;2.52;;;;;;;14.36;37.18;102458.94;1717063;83;21886;-62
2021/09/30 12:19:45;;;;;;;3.50;1.77;;;;;;;14.37;37.56;102454.05;1712388;82;22004;-64
2021/09/30 12:22:26;;;;;;;4.45;2.60;;;;;;;14.35;36.68;102454.16;1715616;82;21378;-63
2021/09/30 12:25:06;;;;;;;1.98;1.77;;;;;;;14.33;36.67;102455.22;1709361;82;21238;-62
2021/09/30 12:27:40;;;;;;;8.75;2.58;;;;;;;14.30;36.50;102451.00;1751430;80;21314;-64
2021/09/30 12:30:24;;;;;;;9.75;2.35;;;;;;;14.27;36.68;102444.59;1776824;80;21161;-67
2021/09/30 12:33:03;;;;;;;5.20;2.00;;;;;;;14.26;36.72;102447.34;1757375;80;21208;-66
2021/09/30 12:35:43;;;;;;;5.90;2.12;;;;;;;14.22;36.96;102449.80;1776873;80;22362;-64
2021/09/30 12:38:20;;;;;;;3.92;2.10;;;;;;;14.19;37.00;102448.22;1757004;80;21396;-65
2021/09/30 12:40:55;;;;;;;4.33;2.30;;;;;;;14.18;37.52;102447.40;1774144;80;21327;-65
2021/09/30 12:43:30;;;;;;;4.92;2.52;;;;;;;14.17;37.26;102439.58;1769700;80;21184;-66
2021/09/30 12:46:07;;;;;;;9.85;2.17;;;;;;;14.17;37.35;102439.58;1779536;80;21284;-67
2021/09/30 12:48:41;;;;;;;2.47;1.55;;;;;;;14.15;37.24;102436.22;1709129;83;21225;-66
2021/09/30 12:51:18;;;;;;;5.62;3.25;;;;;;;14.16;37.44;102435.28;1752857;80;21320;-68
2021/09/30 12:53:54;;;;;;;4.40;2.00;;;;;;;14.17;37.31;102436.95;1749015;81;22787;-70
2021/09/30 12:56:32;;;;;;;2.80;1.70;;;;;;;14.19;37.49;102441.16;1748919;80;21413;-65
2021/09/30 12:59:15;;;;;;;3.65;1.90;;;;;;;14.21;37.23;102438.41;1709324;83;21771;-67
2021/09/30 13:01:50;;;;;;;4.42;1.92;;;;;;;14.17;36.97;102446.16;1706319;82;21843;-62
2021/09/30 13:04:26;;;;;;;3.25;1.47;;;;;;;14.14;37.22;102442.42;1741133;82;21291;-68
2021/09/30 13:07:03;;;;;;;2.80;1.62;;;;;;;14.12;37.06;102440.37;1714512;82;21165;-63
2021/09/30 13:09:40;;;;;;;5.90;2.27;;;;;;;14.11;37.22;102447.42;1705693;83;21402;-69
2021/09/30 13:12:20;;;;;;;3.85;2.22;;;;;;;14.09;37.39;102440.61;1728227;81;21370;-63
2021/09/30 13:14:54;;;;;;;3.10;1.92;;;;;;;14.09;37.57;102440.11;1710752;83;21326;-61
2021/09/30 13:17:30;;;;;;;3.98;2.22;;;;;;;14.08;37.51;102441.08;1772790;80;21311;-64
2021/09/30 13:20:09;;;;;;;2.15;1.95;;;;;;;14.08;38.03;102439.75;1772989;79;21200;-64
2021/09/30 13:22:44;;;;;;;5.50;2.02;;;;;;;14.08;37.76;102436.27;1665634;83;21307;-61
2021/09/30 13:25:19;;;;;;;6.55;1.98;;;;;;;14.06;37.59;102432.44;1712948;83;21221;-67
2021/09/30 13:27:57;;;;;;;3.25;1.90;;;;;;;14.03;37.64;102435.28;1737374;82;21283;-61
2021/09/30 13:30:33;;;;;;;15.03;6.85;;;;;;;13.99;37.52;102439.08;1708633;83;21829;-59
2021/09/30 13:33:07;;;;;;;9.30;6.30;;;;;;;13.96;37.58;102431.84;1729262;81;21687;-62
2021/09/30 13:35:41;;;;;;;11.03;5.65;;;;;;;13.93;37.52;102432.90;1755515;80;21348;-64
2021/09/30 13:38:16;;;;;;;6.90;2.87;;;;;;;13.90;37.61;102431.78;1765163;80;21364;-63
2021/09/30 13:40:49;;;;;;;5.72;2.75;;;;;;;13.89;37.71;102431.90;1763826;79;21945;-63
2021/09/30 13:43:22;;;;;;;4.12;1.77;;;;;;;13.85;38.04;102436.52;1763083;80;21178;-66
2021/09/30 13:45:55;;;;;;;9.90;2.55;;;;;;;13.82;38.08;102429.31;1713276;83;21460;-68
2021/09/30 13:48:29;;;;;;;5.35;1.87;;;;;;;13.79;38.24;102433.00;1779976;80;21319;-61
2021/09/30 13:51:03;;;;;;;8.48;2.22;;;;;;;13.77;38.23;102430.95;1773823;80;21387;-62
2021/09/30 13:53:38;;;;;;;3.95;2.10;;;;;;;13.75;38.67;102430.21;1784439;80;21350;-62
2021/09/30 13:56:12;;;;;;;6.72;1.85;;;;;;;13.73;38.22;102428.12;1777034;80;21292;-66
2021/09/30 13:58:45;;;;;;;3.25;1.90;;;;;;;13.69;37.70;102429.77;1775856;80;21323;-68
2021/09/30 14:01:19;;;;;;;2.12;1.65;;;;;;;13.64;37.78;102431.39;1762709;80;22212;-64
2021/09/30 14:03:54;;;;;;;14.40;5.80;;;;;;;13.61;38.00;102426.82;1754274;81;21296;-65
2021/09/30 14:06:27;;;;;;;5.60;2.33;;;;;;;13.54;38.03;102422.45;1757101;81;21828;-65
2021/09/30 14:09:00;;;;;;;15.32;2.55;;;;;;;13.51;38.29;102423.96;1757993;81;21295;-66
2021/09/30 14:11:34;;;;;;;3.30;2.00;;;;;;;13.46;38.53;102428.69;1757787;81;21320;-65
2021/09/30 14:14:07;;;;;;;7.85;2.37;;;;;;;13.40;38.85;102425.98;1757028;81;21748;-66
2021/09/30 14:16:44;;;;;;;10.03;2.22;;;;;;;13.36;38.95;102431.55;1757452;81;21331;-64
2021/09/30 14:19:25;;;;;;;11.03;2.67;;;;;;;13.30;38.93;102428.02;1756358;81;21240;-66
2021/09/30 14:22:02;;;;;;;4.65;2.20;;;;;;;13.24;39.21;102421.36;1772592;80;21421;-64
2021/09/30 14:24:32;;;;;;;4.25;2.05;;;;;;;13.17;39.33;102425.34;1787129;80;22270;-65
2021/09/30 14:27:05;;;;;;;4.80;2.08;;;;;;;13.11;39.43;102429.67;1789310;80;21181;-65
2021/09/30 14:29:41;;;;;;;5.70;2.40;;;;;;;13.04;39.57;102427.03;1752085;82;21850;-64
2021/09/30 14:32:13;;;;;;;7.33;2.50;;;;;;;12.99;39.79;102429.61;1776397;81;21331;-65
2021/09/30 14:34:46;;;;;;;6.78;2.27;;;;;;;12.92;39.99;102427.82;1749931;81;21299;-64
2021/09/30 14:37:20;;;;;;;4.08;1.67;;;;;;;12.87;40.06;102429.08;1747667;82;21770;-64
2021/09/30 14:39:53;;;;;;;6.83;2.70;;;;;;;12.79;40.40;102429.56;1747339;82;21897;-64
2021/09/30 14:42:26;;;;;;;6.47;3.72;;;;;;;12.74;40.52;102423.75;1747295;82;21304;-66
2021/09/30 14:45:00;;;;;;;5.20;2.47;;;;;;;12.66;40.76;102428.17;1745833;82;21231;-64
2021/09/30 14:47:33;;;;;;;4.65;2.60;;;;;;;12.58;41.08;102422.58;1747822;82;21200;-65
2021/09/30 14:50:07;;;;;;;3.60;2.12;;;;;;;12.53;41.17;102434.30;1747853;82;21279;-65
2021/09/30 14:52:39;;;;;;;;;;;;;;;12.45;41.33;102429.98;1749777;82;21782;-64
2021/09/30 14:55:12;;;;;;;5.28;3.05;;;;;;;12.38;41.46;102436.09;1723221;82;20651;-64
2021/09/30 14:57:45;;;;;;;23.87;9.38;;;;;;;12.27;41.65;102431.98;1773110;81;21339;-64
2021/09/30 15:00:18;;;;;;;19.02;8.75;;;;;;;12.21;41.90;102437.59;1773857;81;21164;-64